Архив погоды в Жуковке

Метеограмма Жуковка
Суббота, 20 Апреля
Время местн. Темп Ветер Видим Явления Облачность нижн/средн/верх Атм. давл. Влжн Точка росы ВНГО R Сост. почвы Tg s
Напр Скр Прв ур.ст ур.м изм
12:00 +14.9° З 1 - 20 км - облачно с прояснениями 753 769 -1.4 23% -6.2° - - - - -
09:00 +8.9° Ю,Ю-З 1 - 15 км - переменная облачность 754 770 -0.2 36% -5.4° более 2.5 км 0 Влажная (без луж) - -
06:00 -3.7° штиль 0 - 9 км дымка переменная облачность 754 771 -1.1 92% -4.8° более 2.5 км - - - -
03:00 -3.1° Ю,Ю-В 1 - 11 км - ясно 755 772 -0.4 86% -5.1° более 2.5 км - - - -
00:00 -0.8° штиль 0 - 13 км - ясно 756 773 -0.2 81% -3.6° более 2.5 км - - - -
Пятница, 19 Апреля
Время местн. Темп Ветер Видим Явления Облачность нижн/средн/верх Атм. давл. Влжн Точка росы ВНГО R Сост. почвы Tg s
Напр Скр Прв ур.ст ур.м изм
21:00 +4.4° штиль 0 - 15 км - ясно 756 772 -0.2 59% -3° более 2.5 км 0 - - -
18:00 +12.3° С-В 3 - 20 км - переменная облачность 756 772 -0.5 25% -7° 1.5 км - - - -
15:00 +12.9° С,С-В 6 - 20 км - облачно с прояснениями 757 773 -0.3 19% -10.1° 1.5 км - - - -
12:00 +12.2° С-В 4 - 20 км - облачно с прояснениями 757 773 +0.2 20% -10.1° 1.5 км - - - -
09:00 +6.7° С,С-В 2 - 15 км - переменная облачность 757 773 +1.2 50% -3° более 2.5 км 0 Влажная (без луж) -2° -
06:00 +1.3° С 1 - 13 км - переменная облачность 756 772 +0.5 67% -4.2° более 2.5 км - - - -
03:00 +3.1° С,С-В 3 - 13 км - ясно 755 772 +0.8 61% -3.7° более 2.5 км - - - -
00:00 +7.2° С-В 2 - 14 км - ясно 754 771 +0.8 46% -3.7° более 2.5 км - - - -
Четверг, 18 Апреля
Время местн. Темп Ветер Видим Явления Облачность нижн/средн/верх Атм. давл. Влжн Точка росы ВНГО R Сост. почвы Tg s
Напр Скр Прв ур.ст ур.м изм
21:00 +10.6° В 3 - 15 км - преимущественно облачно 754 770 +1 32% -5.3° 1 км 0 - - -
18:00 +14.5° С,С-В 4 - 20 км - преимущественно облачно 753 768 -1.4 23% -6.6° 1 км - - - -
15:00 +13.9° С 2 - 20 км - облачно с прояснениями 754 770 -1.3 26% -5.5° 1.5 км - - - -
12:00 +12.7° З 2 - 14 км - преимущественно облачно 755 771 -1.1 30% -4.3° более 2.5 км - - - -
09:00 +6.3° штиль 0 - 9 км дымка преимущественно облачно 756 773 -0.7 86% +4.1° - 0 Влажная (без луж) - -
06:00 -3° штиль 0 - 7 км дымка облачно с прояснениями 757 774 -0.2 91% -4.3° более 2.5 км - - - -
03:00 -2.4° штиль 0 - 9 км дымка переменная облачность 757 774 +0.4 89% -4° более 2.5 км - - - -
00:00 +0.5° штиль 0 - 12 км - ясно 757 774 +0.3 78% -2.8° более 2.5 км - - - -
Среда, 17 Апреля
Время местн. Темп Ветер Видим Явления Облачность нижн/средн/верх Атм. давл. Влжн Точка росы ВНГО R Сост. почвы Tg s
Напр Скр Прв ур.ст ур.м изм
21:00 +7.6° В 2 - 15 км - ясно 757 773 +0.5 40% -5.1° более 2.5 км 0 - - -
18:00 +12.6° В,С-В 3 - 20 км - переменная облачность 756 772 -0.2 29% -5° - - - - -
15:00 +13.2° В 4 - 20 км - незначительная облачность 756 772 -0.1 29% -4.2° более 2.5 км - - - -
12:00 +10.9° С-В 6 10 20 км - переменная облачность 756 773 +0.5 35% -3.9° более 2.5 км - - - -
09:00 +7.2° В 5 - 15 км - ясно 756 772 +1.1 48% -3° более 2.5 км 0 Влажная (без луж) - -